sensor_id;sensor_type;location;lat;lon;timestamp;pressure;altitude;pressure_sealevel;temperature;humidity
75640;BME280;64233;51.486;6.332;2023-08-12T00:01:37;101581.84;;;19.34;100.00
75640;BME280;64233;51.486;6.332;2023-08-12T00:04:02;101585.97;;;19.32;100.00
75640;BME280;64233;51.486;6.332;2023-08-12T00:06:27;101584.34;;;19.31;100.00
75640;BME280;64233;51.486;6.332;2023-08-12T00:08:53;101582.94;;;19.33;100.00
75640;BME280;64233;51.486;6.332;2023-08-12T00:11:19;101583.78;;;19.34;100.00
75640;BME280;64233;51.486;6.332;2023-08-12T00:13:44;101587.25;;;19.39;100.00
75640;BME280;64233;51.486;6.332;2023-08-12T00:16:09;101574.72;;;19.38;100.00
75640;BME280;64233;51.486;6.332;2023-08-12T00:18:34;101571.00;;;19.29;100.00
75640;BME280;64233;51.486;6.332;2023-08-12T00:21:09;101576.47;;;19.29;100.00
75640;BME280;64233;51.486;6.332;2023-08-12T00:23:39;101562.06;;;19.29;100.00
75640;BME280;64233;51.486;6.332;2023-08-12T00:26:08;101559.84;;;19.31;100.00
75640;BME280;64233;51.486;6.332;2023-08-12T00:28:34;101563.38;;;19.31;100.00
75640;BME280;64233;51.486;6.332;2023-08-12T00:30:59;101571.09;;;19.24;100.00
75640;BME280;64233;51.486;6.332;2023-08-12T00:33:24;101564.81;;;19.23;100.00
75640;BME280;64233;51.486;6.332;2023-08-12T00:35:49;101569.22;;;19.19;100.00
75640;BME280;64233;51.486;6.332;2023-08-12T00:38:15;101561.06;;;19.19;100.00
75640;BME280;64233;51.486;6.332;2023-08-12T00:40:40;101563.72;;;19.24;100.00
75640;BME280;64233;51.486;6.332;2023-08-12T00:43:05;101559.97;;;19.20;100.00
75640;BME280;64233;51.486;6.332;2023-08-12T00:45:31;101556.66;;;19.23;100.00
75640;BME280;64233;51.486;6.332;2023-08-12T00:47:57;101552.88;;;19.19;100.00
75640;BME280;64233;51.486;6.332;2023-08-12T00:50:22;101556.38;;;19.25;100.00
75640;BME280;64233;51.486;6.332;2023-08-12T00:52:49;101555.28;;;19.26;100.00
75640;BME280;64233;51.486;6.332;2023-08-12T00:55:16;101549.53;;;19.27;100.00
75640;BME280;64233;51.486;6.332;2023-08-12T00:57:42;101543.88;;;19.24;100.00
75640;BME280;64233;51.486;6.332;2023-08-12T01:00:08;101549.25;;;19.29;100.00
75640;BME280;64233;51.486;6.332;2023-08-12T01:02:34;101538.94;;;19.26;100.00
75640;BME280;64233;51.486;6.332;2023-08-12T01:04:59;101544.63;;;19.30;100.00
75640;BME280;64233;51.486;6.332;2023-08-12T01:07:24;101536.22;;;19.26;100.00
75640;BME280;64233;51.486;6.332;2023-08-12T01:09:50;101527.00;;;19.22;100.00
75640;BME280;64233;51.486;6.332;2023-08-12T01:12:49;101525.88;;;19.28;100.00
75640;BME280;64233;51.486;6.332;2023-08-12T01:15:21;101516.88;;;19.27;100.00
75640;BME280;64233;51.486;6.332;2023-08-12T01:17:47;101523.66;;;19.30;100.00
75640;BME280;64233;51.486;6.332;2023-08-12T01:20:17;101524.97;;;19.33;100.00
75640;BME280;64233;51.486;6.332;2023-08-12T01:22:58;101520.13;;;19.30;100.00
75640;BME280;64233;51.486;6.332;2023-08-12T01:25:26;101511.97;;;19.30;100.00
75640;BME280;64233;51.486;6.332;2023-08-12T01:27:52;101513.31;;;19.32;100.00
75640;BME280;64233;51.486;6.332;2023-08-12T01:30:18;101509.88;;;19.21;100.00
75640;BME280;64233;51.486;6.332;2023-08-12T01:33:00;101513.34;;;19.27;100.00
75640;BME280;64233;51.486;6.332;2023-08-12T01:35:40;101508.41;;;19.29;100.00
75640;BME280;64233;51.486;6.332;2023-08-12T01:38:08;101503.84;;;19.24;100.00
75640;BME280;64233;51.486;6.332;2023-08-12T01:40:35;101501.13;;;19.24;100.00
75640;BME280;64233;51.486;6.332;2023-08-12T01:43:02;101494.59;;;19.25;100.00
75640;BME280;64233;51.486;6.332;2023-08-12T01:45:30;101494.66;;;19.20;100.00
75640;BME280;64233;51.486;6.332;2023-08-12T01:47:55;101483.47;;;19.22;100.00
75640;BME280;64233;51.486;6.332;2023-08-12T01:50:21;101488.91;;;19.22;100.00
75640;BME280;64233;51.486;6.332;2023-08-12T01:52:46;101488.91;;;19.22;100.00
75640;BME280;64233;51.486;6.332;2023-08-12T01:55:12;101493.25;;;19.23;100.00
75640;BME280;64233;51.486;6.332;2023-08-12T01:57:37;101491.63;;;19.22;100.00
75640;BME280;64233;51.486;6.332;2023-08-12T02:00:03;101490.31;;;19.19;100.00
75640;BME280;64233;51.486;6.332;2023-08-12T02:02:28;101488.13;;;19.21;100.00
75640;BME280;64233;51.486;6.332;2023-08-12T02:04:54;101486.19;;;19.22;100.00
75640;BME280;64233;51.486;6.332;2023-08-12T02:07:19;101492.47;;;19.22;100.00
75640;BME280;64233;51.486;6.332;2023-08-12T02:09:44;101489.75;;;19.22;100.00
75640;BME280;64233;51.486;6.332;2023-08-12T02:12:09;101483.78;;;19.20;100.00
75640;BME280;64233;51.486;6.332;2023-08-12T02:14:35;101483.25;;;19.18;100.00
75640;BME280;64233;51.486;6.332;2023-08-12T02:17:01;101482.13;;;19.19;100.00
75640;BME280;64233;51.486;6.332;2023-08-12T02:19:26;101483.19;;;19.23;100.00
75640;BME280;64233;51.486;6.332;2023-08-12T02:21:52;101478.03;;;19.22;100.00
75640;BME280;64233;51.486;6.332;2023-08-12T02:24:17;101480.16;;;19.25;100.00
75640;BME280;64233;51.486;6.332;2023-08-12T02:26:42;101475.59;;;19.20;100.00
75640;BME280;64233;51.486;6.332;2023-08-12T02:29:08;101468.47;;;19.24;100.00
75640;BME280;64233;51.486;6.332;2023-08-12T02:31:33;101475.31;;;19.22;100.00
75640;BME280;64233;51.486;6.332;2023-08-12T02:33:58;101468.47;;;19.24;100.00
75640;BME280;64233;51.486;6.332;2023-08-12T02:36:23;101473.41;;;19.22;100.00
75640;BME280;64233;51.486;6.332;2023-08-12T02:38:50;101473.47;;;19.17;100.00
75640;BME280;64233;51.486;6.332;2023-08-12T02:41:15;101466.34;;;19.21;100.00
75640;BME280;64233;51.486;6.332;2023-08-12T02:43:40;101459.50;;;19.24;100.00
75640;BME280;64233;51.486;6.332;2023-08-12T02:46:06;101456.50;;;19.25;100.00
75640;BME280;64233;51.486;6.332;2023-08-12T02:48:32;101456.50;;;19.25;100.00
75640;BME280;64233;51.486;6.332;2023-08-12T02:50:57;101455.63;;;19.30;100.00
75640;BME280;64233;51.486;6.332;2023-08-12T02:53:22;101453.19;;;19.29;100.00
75640;BME280;64233;51.486;6.332;2023-08-12T02:55:48;101446.34;;;19.31;100.00
75640;BME280;64233;51.486;6.332;2023-08-12T02:58:13;101455.03;;;19.33;100.00
75640;BME280;64233;51.486;6.332;2023-08-12T03:00:42;101441.72;;;19.32;100.00
75640;BME280;64233;51.486;6.332;2023-08-12T03:03:10;101438.47;;;19.30;100.00
75640;BME280;64233;51.486;6.332;2023-08-12T03:05:35;101434.13;;;19.29;100.00
75640;BME280;64233;51.486;6.332;2023-08-12T03:08:02;101434.44;;;19.27;100.00
75640;BME280;64233;51.486;6.332;2023-08-12T03:10:29;101436.13;;;19.23;100.00
75640;BME280;64233;51.486;6.332;2023-08-12T03:12:54;101441.25;;;19.24;100.00
75640;BME280;64233;51.486;6.332;2023-08-12T03:15:19;101435.75;;;19.30;100.00
75640;BME280;64233;51.486;6.332;2023-08-12T03:17:45;101440.47;;;19.24;100.00
75640;BME280;64233;51.486;6.332;2023-08-12T03:20:10;101432.81;;;19.26;100.00
75640;BME280;64233;51.486;6.332;2023-08-12T03:22:36;101437.94;;;19.27;100.00
75640;BME280;64233;51.486;6.332;2023-08-12T03:25:02;101424.78;;;19.35;100.00
75640;BME280;64233;51.486;6.332;2023-08-12T03:27:28;101423.09;;;19.39;100.00
75640;BME280;64233;51.486;6.332;2023-08-12T03:29:53;101417.66;;;19.39;100.00
75640;BME280;64233;51.486;6.332;2023-08-12T03:32:19;101413.03;;;19.39;100.00
75640;BME280;64233;51.486;6.332;2023-08-12T03:34:44;101407.34;;;19.36;100.00
75640;BME280;64233;51.486;6.332;2023-08-12T03:37:09;101403.84;;;19.35;100.00
75640;BME280;64233;51.486;6.332;2023-08-12T03:39:35;101405.16;;;19.38;100.00
75640;BME280;64233;51.486;6.332;2023-08-12T03:42:00;101400.50;;;19.38;100.00
75640;BME280;64233;51.486;6.332;2023-08-12T03:44:25;101384.53;;;19.32;100.00
75640;BME280;64233;51.486;6.332;2023-08-12T03:46:51;101390.53;;;19.34;100.00
75640;BME280;64233;51.486;6.332;2023-08-12T03:49:16;101388.91;;;19.33;100.00
75640;BME280;64233;51.486;6.332;2023-08-12T03:51:41;101375.59;;;19.31;100.00
75640;BME280;64233;51.486;6.332;2023-08-12T03:54:07;101389.69;;;19.33;100.00
75640;BME280;64233;51.486;6.332;2023-08-12T03:56:32;101386.19;;;19.33;100.00
75640;BME280;64233;51.486;6.332;2023-08-12T03:58:57;101382.34;;;19.34;100.00
75640;BME280;64233;51.486;6.332;2023-08-12T04:01:23;101376.63;;;19.35;100.00
75640;BME280;64233;51.486;6.332;2023-08-12T04:03:48;101380.38;;;19.39;100.00
75640;BME280;64233;51.486;6.332;2023-08-12T04:06:13;101372.28;;;19.34;100.00
75640;BME280;64233;51.486;6.332;2023-08-12T04:08:39;101366.53;;;19.36;100.00
75640;BME280;64233;51.486;6.332;2023-08-12T04:11:04;101373.28;;;19.38;100.00
75640;BME280;64233;51.486;6.332;2023-08-12T04:13:29;101370.03;;;19.36;100.00
75640;BME280;64233;51.486;6.332;2023-08-12T04:15:55;101374.69;;;19.36;100.00
75640;BME280;64233;51.486;6.332;2023-08-12T04:18:20;101372.19;;;19.39;100.00
75640;BME280;64233;51.486;6.332;2023-08-12T04:20:47;101360.00;;;19.37;100.00
75640;BME280;64233;51.486;6.332;2023-08-12T04:23:13;101358.97;;;19.33;100.00
75640;BME280;64233;51.486;6.332;2023-08-12T04:25:38;101359.75;;;19.33;100.00
75640;BME280;64233;51.486;6.332;2023-08-12T04:28:04;101356.22;;;19.33;100.00
75640;BME280;64233;51.486;6.332;2023-08-12T04:30:29;101360.88;;;19.32;100.00
75640;BME280;64233;51.486;6.332;2023-08-12T04:32:54;101359.47;;;19.35;100.00
75640;BME280;64233;51.486;6.332;2023-08-12T04:35:20;101355.88;;;19.39;100.00
75640;BME280;64233;51.486;6.332;2023-08-12T04:37:45;101351.28;;;19.35;100.00
75640;BME280;64233;51.486;6.332;2023-08-12T04:40:10;101341.00;;;19.32;100.00
75640;BME280;64233;51.486;6.332;2023-08-12T04:42:36;101331.75;;;19.33;100.00
75640;BME280;64233;51.486;6.332;2023-08-12T04:45:01;101333.88;;;19.36;100.00
75640;BME280;64233;51.486;6.332;2023-08-12T04:47:28;101330.84;;;19.37;100.00
75640;BME280;64233;51.486;6.332;2023-08-12T04:49:54;101338.22;;;19.37;100.00
75640;BME280;64233;51.486;6.332;2023-08-12T04:52:20;101328.13;;;19.37;100.00
75640;BME280;64233;51.486;6.332;2023-08-12T04:54:46;101324.00;;;19.40;100.00
75640;BME280;64233;51.486;6.332;2023-08-12T04:57:11;101326.44;;;19.41;100.00
75640;BME280;64233;51.486;6.332;2023-08-12T04:59:36;101328.06;;;19.42;100.00
75640;BME280;64233;51.486;6.332;2023-08-12T05:02:02;101319.34;;;19.40;100.00
75640;BME280;64233;51.486;6.332;2023-08-12T05:04:27;101324.50;;;19.42;100.00
75640;BME280;64233;51.486;6.332;2023-08-12T05:06:52;101312.31;;;19.39;100.00
75640;BME280;64233;51.486;6.332;2023-08-12T05:09:18;101317.16;;;19.42;100.00
75640;BME280;64233;51.486;6.332;2023-08-12T05:11:43;101312.50;;;19.43;100.00
75640;BME280;64233;51.486;6.332;2023-08-12T05:14:08;101305.19;;;19.43;100.00
75640;BME280;64233;51.486;6.332;2023-08-12T05:16:34;101302.44;;;19.43;100.00
75640;BME280;64233;51.486;6.332;2023-08-12T05:18:59;101309.72;;;19.48;100.00
75640;BME280;64233;51.486;6.332;2023-08-12T05:21:25;101298.31;;;19.46;100.00
75640;BME280;64233;51.486;6.332;2023-08-12T05:23:50;101301.75;;;19.52;100.00
75640;BME280;64233;51.486;6.332;2023-08-12T05:26:15;101301.16;;;19.55;100.00
75640;BME280;64233;51.486;6.332;2023-08-12T05:28:41;101302.69;;;19.61;100.00
75640;BME280;64233;51.486;6.332;2023-08-12T05:31:07;101289.38;;;19.59;100.00
75640;BME280;64233;51.486;6.332;2023-08-12T05:33:33;101297.31;;;19.56;100.00
75640;BME280;64233;51.486;6.332;2023-08-12T05:35:58;101299.44;;;19.59;100.00
75640;BME280;64233;51.486;6.332;2023-08-12T05:38:23;101297.31;;;19.56;100.00
75640;BME280;64233;51.486;6.332;2023-08-12T05:40:48;101292.47;;;19.53;100.00
75640;BME280;64233;51.486;6.332;2023-08-12T05:43:14;101288.34;;;19.55;100.00
75640;BME280;64233;51.486;6.332;2023-08-12T05:45:39;101296.81;;;19.54;100.00
75640;BME280;64233;51.486;6.332;2023-08-12T05:48:05;101294.41;;;19.52;100.00
75640;BME280;64233;51.486;6.332;2023-08-12T05:50:30;101298.59;;;19.44;100.00
75640;BME280;64233;51.486;6.332;2023-08-12T05:52:55;101306.47;;;19.46;100.00
75640;BME280;64233;51.486;6.332;2023-08-12T05:55:20;101302.94;;;19.46;100.00
75640;BME280;64233;51.486;6.332;2023-08-12T05:57:46;101305.25;;;19.38;100.00
75640;BME280;64233;51.486;6.332;2023-08-12T06:00:12;101297.81;;;19.44;100.00
75640;BME280;64233;51.486;6.332;2023-08-12T06:02:37;101287.22;;;19.42;100.00
75640;BME280;64233;51.486;6.332;2023-08-12T06:05:03;101287.72;;;19.44;100.00
75640;BME280;64233;51.486;6.332;2023-08-12T06:07:29;101290.53;;;19.39;100.00
75640;BME280;64233;51.486;6.332;2023-08-12T06:09:54;101293.75;;;19.41;100.00
75640;BME280;64233;51.486;6.332;2023-08-12T06:12:19;101295.69;;;19.41;100.00
75640;BME280;64233;51.486;6.332;2023-08-12T06:14:45;101295.47;;;19.37;100.00
75640;BME280;64233;51.486;6.332;2023-08-12T06:17:10;101292.25;;;19.35;100.00
75640;BME280;64233;51.486;6.332;2023-08-12T06:19:35;101282.69;;;19.38;100.00
75640;BME280;64233;51.486;6.332;2023-08-12T06:22:01;101288.13;;;19.38;100.00
75640;BME280;64233;51.486;6.332;2023-08-12T06:24:26;101285.09;;;19.39;100.00
75640;BME280;64233;51.486;6.332;2023-08-12T06:26:51;101275.50;;;19.42;100.00
75640;BME280;64233;51.486;6.332;2023-08-12T06:29:16;101274.72;;;19.41;100.00
75640;BME280;64233;51.486;6.332;2023-08-12T06:31:42;101273.69;;;19.37;100.00
75640;BME280;64233;51.486;6.332;2023-08-12T06:34:07;101264.91;;;19.40;100.00
75640;BME280;64233;51.486;6.332;2023-08-12T06:36:32;101268.53;;;19.36;100.00
75640;BME280;64233;51.486;6.332;2023-08-12T06:38:58;101260.38;;;19.36;100.00
75640;BME280;64233;51.486;6.332;2023-08-12T06:41:23;101262.38;;;19.30;100.00
75640;BME280;64233;51.486;6.332;2023-08-12T06:43:48;101270.03;;;19.28;100.00
75640;BME280;64233;51.486;6.332;2023-08-12T06:46:14;101267.03;;;19.30;100.00
75640;BME280;64233;51.486;6.332;2023-08-12T06:48:39;101262.59;;;19.34;100.00
75640;BME280;64233;51.486;6.332;2023-08-12T06:51:04;101255.94;;;19.40;100.00
75640;BME280;64233;51.486;6.332;2023-08-12T06:53:36;101266.78;;;19.26;100.00
75640;BME280;64233;51.486;6.332;2023-08-12T06:56:01;101263.28;;;19.25;100.00
75640;BME280;64233;51.486;6.332;2023-08-12T06:58:27;101265.16;;;19.25;100.00
75640;BME280;64233;51.486;6.332;2023-08-12T07:00:52;101261.06;;;19.27;100.00
75640;BME280;64233;51.486;6.332;2023-08-12T07:03:18;101273.25;;;19.30;100.00
75640;BME280;64233;51.486;6.332;2023-08-12T07:05:44;101254.81;;;19.27;100.00
75640;BME280;64233;51.486;6.332;2023-08-12T07:08:10;101255.59;;;19.27;100.00
75640;BME280;64233;51.486;6.332;2023-08-12T07:10:40;101259.06;;;19.33;100.00
75640;BME280;64233;51.486;6.332;2023-08-12T07:13:06;101255.00;;;19.31;100.00
75640;BME280;64233;51.486;6.332;2023-08-12T07:15:31;101254.44;;;19.34;100.00
75640;BME280;64233;51.486;6.332;2023-08-12T07:17:57;101248.16;;;19.33;100.00
75640;BME280;64233;51.486;6.332;2023-08-12T07:20:24;101248.47;;;19.32;100.00
75640;BME280;64233;51.486;6.332;2023-08-12T07:22:49;101251.13;;;19.37;100.00
75640;BME280;64233;51.486;6.332;2023-08-12T07:25:15;101245.66;;;19.37;100.00
75640;BME280;64233;51.486;6.332;2023-08-12T07:27:40;101246.47;;;19.37;100.00
75640;BME280;64233;51.486;6.332;2023-08-12T07:30:06;101255.53;;;19.33;100.00
75640;BME280;64233;51.486;6.332;2023-08-12T07:32:32;101252.50;;;19.34;100.00
75640;BME280;64233;51.486;6.332;2023-08-12T07:34:58;101262.69;;;19.29;100.00
75640;BME280;64233;51.486;6.332;2023-08-12T07:37:23;101260.44;;;19.31;100.00
75640;BME280;64233;51.486;6.332;2023-08-12T07:39:48;101252.47;;;19.20;100.00
75640;BME280;64233;51.486;6.332;2023-08-12T07:42:13;101265.47;;;19.23;100.00
75640;BME280;64233;51.486;6.332;2023-08-12T07:44:39;101260.25;;;19.27;100.00
75640;BME280;64233;51.486;6.332;2023-08-12T07:47:04;101260.31;;;19.22;100.00
75640;BME280;64233;51.486;6.332;2023-08-12T07:49:29;101261.47;;;19.21;100.00
75640;BME280;64233;51.486;6.332;2023-08-12T07:51:55;101255.00;;;19.17;100.00
75640;BME280;64233;51.486;6.332;2023-08-12T07:54:20;101261.72;;;19.19;100.00
75640;BME280;64233;51.486;6.332;2023-08-12T07:56:45;101256.00;;;19.21;100.00
75640;BME280;64233;51.486;6.332;2023-08-12T07:59:11;101255.78;;;19.17;100.00
75640;BME280;64233;51.486;6.332;2023-08-12T08:01:36;101265.56;;;19.18;100.00
75640;BME280;64233;51.486;6.332;2023-08-12T08:04:01;101258.81;;;19.16;100.00
75640;BME280;64233;51.486;6.332;2023-08-12T08:06:26;101247.13;;;19.15;100.00
75640;BME280;64233;51.486;6.332;2023-08-12T08:08:53;101239.97;;;19.19;100.00
75640;BME280;64233;51.486;6.332;2023-08-12T08:11:19;101250.66;;;19.16;100.00
75640;BME280;64233;51.486;6.332;2023-08-12T08:13:44;101250.69;;;19.30;100.00
75640;BME280;64233;51.486;6.332;2023-08-12T08:16:09;101234.13;;;19.26;100.00
75640;BME280;64233;51.486;6.332;2023-08-12T08:18:35;101237.50;;;19.37;100.00
75640;BME280;64233;51.486;6.332;2023-08-12T08:21:00;101238.31;;;19.37;100.00
75640;BME280;64233;51.486;6.332;2023-08-12T08:23:25;101240.00;;;19.33;100.00
75640;BME280;64233;51.486;6.332;2023-08-12T08:25:50;101236.91;;;19.40;100.00
75640;BME280;64233;51.486;6.332;2023-08-12T08:28:16;101234.28;;;19.49;100.00
75640;BME280;64233;51.486;6.332;2023-08-12T08:30:41;101240.03;;;19.47;100.00
75640;BME280;64233;51.486;6.332;2023-08-12T08:33:06;101242.56;;;19.43;100.00
75640;BME280;64233;51.486;6.332;2023-08-12T08:35:32;101239.63;;;19.40;100.00
75640;BME280;64233;51.486;6.332;2023-08-12T08:37:57;101237.88;;;19.30;100.00
75640;BME280;64233;51.486;6.332;2023-08-12T08:40:23;101241.75;;;19.43;100.00
75640;BME280;64233;51.486;6.332;2023-08-12T08:42:52;101252.66;;;19.57;100.00
75640;BME280;64233;51.486;6.332;2023-08-12T08:45:21;101240.75;;;19.53;100.00
75640;BME280;64233;51.486;6.332;2023-08-12T08:47:49;101247.28;;;19.52;100.00
75640;BME280;64233;51.486;6.332;2023-08-12T08:50:17;101248.44;;;19.51;100.00
75640;BME280;64233;51.486;6.332;2023-08-12T08:52:43;101250.13;;;19.47;100.00
75640;BME280;64233;51.486;6.332;2023-08-12T08:55:09;101247.50;;;19.55;100.00
75640;BME280;64233;51.486;6.332;2023-08-12T08:57:35;101252.06;;;19.60;100.00
75640;BME280;64233;51.486;6.332;2023-08-12T09:00:02;101254.16;;;19.63;100.00
75640;BME280;64233;51.486;6.332;2023-08-12T09:02:28;101255.88;;;19.59;100.00
75640;BME280;64233;51.486;6.332;2023-08-12T09:04:54;101266.66;;;19.50;100.00
75640;BME280;64233;51.486;6.332;2023-08-12T09:07:20;101257.88;;;19.53;100.00
75640;BME280;64233;51.486;6.332;2023-08-12T09:09:48;101262.66;;;19.61;100.00
75640;BME280;64233;51.486;6.332;2023-08-12T09:12:15;101265.47;;;19.56;100.00
75640;BME280;64233;51.486;6.332;2023-08-12T09:14:42;101261.72;;;19.52;100.00
75640;BME280;64233;51.486;6.332;2023-08-12T09:17:07;101268.19;;;19.56;100.00
75640;BME280;64233;51.486;6.332;2023-08-12T09:19:33;101266.69;;;19.64;100.00
75640;BME280;64233;51.486;6.332;2023-08-12T09:21:58;101269.63;;;19.68;100.00
75640;BME280;64233;51.486;6.332;2023-08-12T09:24:27;101269.41;;;19.64;100.00
75640;BME280;64233;51.486;6.332;2023-08-12T09:26:53;101270.19;;;19.84;100.00
75640;BME280;64233;51.486;6.332;2023-08-12T09:29:23;101272.69;;;19.94;100.00
75640;BME280;64233;51.486;6.332;2023-08-12T09:31:49;101269.97;;;20.08;100.00
75640;BME280;64233;51.486;6.332;2023-08-12T09:34:15;101267.47;;;19.98;100.00
75640;BME280;64233;51.486;6.332;2023-08-12T09:36:41;101263.81;;;20.16;100.00
75640;BME280;64233;51.486;6.332;2023-08-12T09:39:07;101266.94;;;20.23;100.00
75640;BME280;64233;51.486;6.332;2023-08-12T09:41:37;101258.88;;;20.18;100.00
75640;BME280;64233;51.486;6.332;2023-08-12T09:44:03;101260.19;;;20.21;100.00
75640;BME280;64233;51.486;6.332;2023-08-12T09:46:32;101251.78;;;20.31;100.00
75640;BME280;64233;51.486;6.332;2023-08-12T09:48:58;101254.00;;;20.43;100.00
75640;BME280;64233;51.486;6.332;2023-08-12T09:51:23;101244.13;;;20.33;100.00
75640;BME280;64233;51.486;6.332;2023-08-12T09:53:49;101250.28;;;20.25;100.00
75640;BME280;64233;51.486;6.332;2023-08-12T09:56:17;101248.66;;;20.24;100.00
75640;BME280;64233;51.486;6.332;2023-08-12T09:58:43;101249.50;;;20.24;100.00
75640;BME280;64233;51.486;6.332;2023-08-12T10:01:10;101251.50;;;20.19;100.00
75640;BME280;64233;51.486;6.332;2023-08-12T10:03:36;101253.72;;;20.17;100.00
75640;BME280;64233;51.486;6.332;2023-08-12T10:06:02;101249.91;;;20.04;100.00
75640;BME280;64233;51.486;6.332;2023-08-12T10:08:28;101250.69;;;20.18;100.00
75640;BME280;64233;51.486;6.332;2023-08-12T10:10:54;101253.09;;;20.20;100.00
75640;BME280;64233;51.486;6.332;2023-08-12T10:13:21;101259.88;;;20.08;100.00
75640;BME280;64233;51.486;6.332;2023-08-12T10:15:48;101261.91;;;20.17;100.00
75640;BME280;64233;51.486;6.332;2023-08-12T10:18:14;101270.28;;;20.06;100.00
75640;BME280;64233;51.486;6.332;2023-08-12T10:20:40;101270.38;;;19.87;100.00
75640;BME280;64233;51.486;6.332;2023-08-12T10:23:05;101276.63;;;19.88;100.00
75640;BME280;64233;51.486;6.332;2023-08-12T10:25:33;101277.53;;;19.83;100.00
75640;BME280;64233;51.486;6.332;2023-08-12T10:28:00;101275.50;;;19.89;100.00
75640;BME280;64233;51.486;6.332;2023-08-12T10:30:28;101281.25;;;19.87;100.00
75640;BME280;64233;51.486;6.332;2023-08-12T10:32:54;101269.44;;;19.78;100.00
75640;BME280;64233;51.486;6.332;2023-08-12T10:35:19;101272.25;;;19.73;100.00
75640;BME280;64233;51.486;6.332;2023-08-12T10:37:48;101277.81;;;19.68;100.00
75640;BME280;64233;51.486;6.332;2023-08-12T10:40:23;101275.25;;;19.71;100.00
75640;BME280;64233;51.486;6.332;2023-08-12T10:42:49;101276.28;;;19.75;100.00
75640;BME280;64233;51.486;6.332;2023-08-12T10:45:16;101275.41;;;19.80;100.00
75640;BME280;64233;51.486;6.332;2023-08-12T10:47:51;101275.97;;;19.77;100.00
75640;BME280;64233;51.486;6.332;2023-08-12T10:50:21;101274.50;;;19.99;100.00
75640;BME280;64233;51.486;6.332;2023-08-12T10:52:50;101271.16;;;20.29;100.00
75640;BME280;64233;51.486;6.332;2023-08-12T10:55:23;101278.03;;;20.41;100.00
75640;BME280;64233;51.486;6.332;2023-08-12T10:57:50;101279.25;;;20.21;100.00
75640;BME280;64233;51.486;6.332;2023-08-12T11:00:18;101272.69;;;19.94;100.00
75640;BME280;64233;51.486;6.332;2023-08-12T11:02:49;101272.19;;;19.92;100.00
75640;BME280;64233;51.486;6.332;2023-08-12T11:05:15;101270.19;;;19.98;100.00
75640;BME280;64233;51.486;6.332;2023-08-12T11:08:14;101277.22;;;19.99;100.00
75640;BME280;64233;51.486;6.332;2023-08-12T11:10:34;101276.75;;;19.97;100.00
75640;BME280;64233;51.486;6.332;2023-08-12T11:13:00;101277.63;;;20.06;100.00
75640;BME280;64233;51.486;6.332;2023-08-12T11:15:36;101277.75;;;20.15;100.00
75640;BME280;64233;51.486;6.332;2023-08-12T11:18:24;101271.47;;;20.14;100.00
75640;BME280;64233;51.486;6.332;2023-08-12T11:20:50;101275.63;;;20.11;100.00
75640;BME280;64233;51.486;6.332;2023-08-12T11:23:16;101265.31;;;20.36;100.00
75640;BME280;64233;51.486;6.332;2023-08-12T11:25:42;101264.78;;;20.48;100.00
75640;BME280;64233;51.486;6.332;2023-08-12T11:28:09;101258.09;;;20.68;100.00
75640;BME280;64233;51.486;6.332;2023-08-12T11:30:34;101258.19;;;20.77;100.00
75640;BME280;64233;51.486;6.332;2023-08-12T11:33:01;101249.00;;;20.95;100.00
75640;BME280;64233;51.486;6.332;2023-08-12T11:35:26;101244.34;;;21.19;100.00
75640;BME280;64233;51.486;6.332;2023-08-12T11:37:53;101241.78;;;21.45;100.00
75640;BME280;64233;51.486;6.332;2023-08-12T11:40:20;101237.03;;;21.28;100.00
75640;BME280;64233;51.486;6.332;2023-08-12T11:42:47;101234.75;;;21.21;100.00
75640;BME280;64233;51.486;6.332;2023-08-12T11:45:15;101236.16;;;20.96;100.00
75640;BME280;64233;51.486;6.332;2023-08-12T11:47:41;101234.50;;;21.09;100.00
75640;BME280;64233;51.486;6.332;2023-08-12T11:50:08;101236.69;;;20.98;100.00
75640;BME280;64233;51.486;6.332;2023-08-12T11:52:35;101233.06;;;21.11;100.00
75640;BME280;64233;51.486;6.332;2023-08-12T11:55:01;101236.09;;;21.32;100.00
75640;BME280;64233;51.486;6.332;2023-08-12T11:57:27;101240.84;;;21.49;100.00
75640;BME280;64233;51.486;6.332;2023-08-12T11:59:58;101226.63;;;21.70;100.00
75640;BME280;64233;51.486;6.332;2023-08-12T12:02:24;101225.47;;;21.54;100.00
75640;BME280;64233;51.486;6.332;2023-08-12T12:04:51;101238.22;;;21.44;100.00
75640;BME280;64233;51.486;6.332;2023-08-12T12:07:21;101227.59;;;21.34;100.00
75640;BME280;64233;51.486;6.332;2023-08-12T12:09:46;101236.16;;;21.50;100.00
75640;BME280;64233;51.486;6.332;2023-08-12T12:12:12;101229.56;;;21.42;100.00
75640;BME280;64233;51.486;6.332;2023-08-12T12:14:37;101227.38;;;21.30;100.00
75640;BME280;64233;51.486;6.332;2023-08-12T12:17:08;101238.19;;;21.36;100.00
75640;BME280;64233;51.486;6.332;2023-08-12T12:19:34;101238.06;;;21.72;100.00
75640;BME280;64233;51.486;6.332;2023-08-12T12:22:02;101234.91;;;21.88;100.00
75640;BME280;64233;51.486;6.332;2023-08-12T12:24:29;101227.16;;;21.72;100.00
75640;BME280;64233;51.486;6.332;2023-08-12T12:26:56;101234.81;;;21.39;100.00
75640;BME280;64233;51.486;6.332;2023-08-12T12:29:21;101231.09;;;21.57;100.00
75640;BME280;64233;51.486;6.332;2023-08-12T12:31:46;101235.91;;;21.60;100.00
75640;BME280;64233;51.486;6.332;2023-08-12T12:34:11;101244.28;;;21.55;100.00
75640;BME280;64233;51.486;6.332;2023-08-12T12:36:39;101255.59;;;21.17;100.00